sensor_id;sensor_type;location;lat;lon;timestamp;temperature;humidity
18948;DHT22;9607;51.600;7.558;2022-09-09T04:21:49;14.00;99.90
18948;DHT22;9607;51.600;7.558;2022-09-09T04:26:52;14.10;99.90
18948;DHT22;9607;51.600;7.558;2022-09-09T04:29:19;14.10;99.90
18948;DHT22;9607;51.600;7.558;2022-09-09T04:31:46;14.20;99.90
18948;DHT22;9607;51.600;7.558;2022-09-09T04:34:13;14.20;99.90
18948;DHT22;9607;51.600;7.558;2022-09-09T04:36:40;14.20;99.90
18948;DHT22;9607;51.600;7.558;2022-09-09T04:39:08;14.30;99.90
18948;DHT22;9607;51.600;7.558;2022-09-09T04:41:35;14.30;99.90
18948;DHT22;9607;51.600;7.558;2022-09-09T04:44:03;14.30;99.90
18948;DHT22;9607;51.600;7.558;2022-09-09T04:46:30;14.40;99.90
18948;DHT22;9607;51.600;7.558;2022-09-09T04:48:57;14.40;99.90
18948;DHT22;9607;51.600;7.558;2022-09-09T04:51:24;14.40;99.90
18948;DHT22;9607;51.600;7.558;2022-09-09T04:53:50;14.50;99.90
18948;DHT22;9607;51.600;7.558;2022-09-09T04:56:21;14.50;99.90
18948;DHT22;9607;51.600;7.558;2022-09-09T04:58:47;14.60;99.90
18948;DHT22;9607;51.600;7.558;2022-09-09T05:01:16;14.60;99.90
18948;DHT22;9607;51.600;7.558;2022-09-09T05:03:43;14.60;99.90
18948;DHT22;9607;51.600;7.558;2022-09-09T05:06:12;14.60;99.90
18948;DHT22;9607;51.600;7.558;2022-09-09T05:08:41;14.60;99.90
18948;DHT22;9607;51.600;7.558;2022-09-09T05:11:19;14.70;99.90
18948;DHT22;9607;51.600;7.558;2022-09-09T05:13:48;14.70;99.90
18948;DHT22;9607;51.600;7.558;2022-09-09T05:16:16;14.70;99.90
18948;DHT22;9607;51.600;7.558;2022-09-09T05:18:44;14.70;99.90
18948;DHT22;9607;51.600;7.558;2022-09-09T05:21:12;14.70;99.90
18948;DHT22;9607;51.600;7.558;2022-09-09T05:23:40;14.70;99.90
18948;DHT22;9607;51.600;7.558;2022-09-09T05:26:10;14.70;99.90
18948;DHT22;9607;51.600;7.558;2022-09-09T05:28:38;14.70;99.90
18948;DHT22;9607;51.600;7.558;2022-09-09T05:31:08;14.80;99.90
18948;DHT22;9607;51.600;7.558;2022-09-09T05:33:37;14.80;99.90
18948;DHT22;9607;51.600;7.558;2022-09-09T05:36:08;14.90;99.90
18948;DHT22;9607;51.600;7.558;2022-09-09T05:38:36;14.90;99.90
18948;DHT22;9607;51.600;7.558;2022-09-09T05:41:03;14.90;99.90
18948;DHT22;9607;51.600;7.558;2022-09-09T05:43:33;14.90;99.90
18948;DHT22;9607;51.600;7.558;2022-09-09T05:46:03;15.00;99.90
18948;DHT22;9607;51.600;7.558;2022-09-09T05:48:34;15.00;99.90
18948;DHT22;9607;51.600;7.558;2022-09-09T05:51:01;15.00;99.90
18948;DHT22;9607;51.600;7.558;2022-09-09T05:53:29;15.10;99.90
18948;DHT22;9607;51.600;7.558;2022-09-09T05:56:01;15.10;99.90
18948;DHT22;9607;51.600;7.558;2022-09-09T05:58:29;15.20;99.90
18948;DHT22;9607;51.600;7.558;2022-09-09T06:01:04;15.20;99.90
18948;DHT22;9607;51.600;7.558;2022-09-09T06:03:34;15.20;99.90
18948;DHT22;9607;51.600;7.558;2022-09-09T06:06:02;15.20;99.90
18948;DHT22;9607;51.600;7.558;2022-09-09T06:08:31;15.20;99.90
18948;DHT22;9607;51.600;7.558;2022-09-09T06:11:01;15.30;99.90
18948;DHT22;9607;51.600;7.558;2022-09-09T06:13:29;15.30;99.90
18948;DHT22;9607;51.600;7.558;2022-09-09T06:15:57;15.30;99.90
18948;DHT22;9607;51.600;7.558;2022-09-09T06:18:25;15.40;99.90
18948;DHT22;9607;51.600;7.558;2022-09-09T06:20:58;15.40;99.90
18948;DHT22;9607;51.600;7.558;2022-09-09T06:23:26;15.50;99.90
18948;DHT22;9607;51.600;7.558;2022-09-09T06:26:01;15.60;99.90
18948;DHT22;9607;51.600;7.558;2022-09-09T06:28:28;15.70;99.90
18948;DHT22;9607;51.600;7.558;2022-09-09T06:30:58;15.80;99.90
18948;DHT22;9607;51.600;7.558;2022-09-09T06:33:25;15.80;99.90
18948;DHT22;9607;51.600;7.558;2022-09-09T06:35:53;15.90;99.90
18948;DHT22;9607;51.600;7.558;2022-09-09T06:38:24;16.00;99.90
18948;DHT22;9607;51.600;7.558;2022-09-09T06:40:53;16.00;99.90
18948;DHT22;9607;51.600;7.558;2022-09-09T06:43:21;16.10;99.90
18948;DHT22;9607;51.600;7.558;2022-09-09T06:45:57;16.20;99.90
18948;DHT22;9607;51.600;7.558;2022-09-09T06:48:24;16.20;99.90
18948;DHT22;9607;51.600;7.558;2022-09-09T06:51:01;16.30;99.90
18948;DHT22;9607;51.600;7.558;2022-09-09T06:53:29;16.30;99.90
18948;DHT22;9607;51.600;7.558;2022-09-09T06:55:56;16.30;99.90
18948;DHT22;9607;51.600;7.558;2022-09-09T06:58:23;16.40;99.90
18948;DHT22;9607;51.600;7.558;2022-09-09T07:00:50;16.50;99.90
18948;DHT22;9607;51.600;7.558;2022-09-09T07:03:17;16.60;99.90
18948;DHT22;9607;51.600;7.558;2022-09-09T07:05:53;16.60;99.90
18948;DHT22;9607;51.600;7.558;2022-09-09T07:08:21;16.70;99.90
18948;DHT22;9607;51.600;7.558;2022-09-09T07:10:50;16.90;99.90
18948;DHT22;9607;51.600;7.558;2022-09-09T07:13:16;17.00;99.90
18948;DHT22;9607;51.600;7.558;2022-09-09T07:15:46;17.10;99.90
18948;DHT22;9607;51.600;7.558;2022-09-09T07:18:13;17.30;99.90
18948;DHT22;9607;51.600;7.558;2022-09-09T07:20:40;17.40;99.90
18948;DHT22;9607;51.600;7.558;2022-09-09T07:23:07;17.40;99.90
18948;DHT22;9607;51.600;7.558;2022-09-09T07:25:34;17.50;99.90
18948;DHT22;9607;51.600;7.558;2022-09-09T07:28:03;17.60;99.90
18948;DHT22;9607;51.600;7.558;2022-09-09T07:30:30;17.60;99.90
18948;DHT22;9607;51.600;7.558;2022-09-09T07:32:57;17.60;99.90
18948;DHT22;9607;51.600;7.558;2022-09-09T07:35:24;17.70;99.90
18948;DHT22;9607;51.600;7.558;2022-09-09T07:37:52;17.80;99.90
18948;DHT22;9607;51.600;7.558;2022-09-09T07:40:19;17.80;99.90
18948;DHT22;9607;51.600;7.558;2022-09-09T07:42:47;17.80;99.90
18948;DHT22;9607;51.600;7.558;2022-09-09T07:45:15;17.90;99.90
18948;DHT22;9607;51.600;7.558;2022-09-09T07:47:42;17.90;99.90
18948;DHT22;9607;51.600;7.558;2022-09-09T07:50:09;17.90;99.90
18948;DHT22;9607;51.600;7.558;2022-09-09T07:52:37;17.90;99.90
18948;DHT22;9607;51.600;7.558;2022-09-09T07:55:04;17.80;99.90
18948;DHT22;9607;51.600;7.558;2022-09-09T07:57:32;17.80;99.90
18948;DHT22;9607;51.600;7.558;2022-09-09T07:59:58;17.80;99.90
18948;DHT22;9607;51.600;7.558;2022-09-09T08:02:27;17.90;99.90
18948;DHT22;9607;51.600;7.558;2022-09-09T08:04:54;17.90;99.90
18948;DHT22;9607;51.600;7.558;2022-09-09T08:07:22;17.90;99.90
18948;DHT22;9607;51.600;7.558;2022-09-09T08:09:49;17.90;99.90
18948;DHT22;9607;51.600;7.558;2022-09-09T08:12:15;17.90;99.90
18948;DHT22;9607;51.600;7.558;2022-09-09T08:14:42;17.90;99.90
18948;DHT22;9607;51.600;7.558;2022-09-09T08:17:09;17.90;99.90
18948;DHT22;9607;51.600;7.558;2022-09-09T08:19:37;18.00;99.90
18948;DHT22;9607;51.600;7.558;2022-09-09T08:22:04;18.00;99.90
18948;DHT22;9607;51.600;7.558;2022-09-09T08:24:31;18.10;99.90
18948;DHT22;9607;51.600;7.558;2022-09-09T08:26:58;18.10;99.90
18948;DHT22;9607;51.600;7.558;2022-09-09T08:29:25;18.10;99.90
18948;DHT22;9607;51.600;7.558;2022-09-09T08:31:55;18.10;99.90
18948;DHT22;9607;51.600;7.558;2022-09-09T08:34:24;18.10;99.90
18948;DHT22;9607;51.600;7.558;2022-09-09T08:36:54;18.10;99.90
18948;DHT22;9607;51.600;7.558;2022-09-09T08:39:21;18.20;99.90
18948;DHT22;9607;51.600;7.558;2022-09-09T08:42:05;18.30;99.90
18948;DHT22;9607;51.600;7.558;2022-09-09T08:44:46;18.40;99.90
18948;DHT22;9607;51.600;7.558;2022-09-09T08:47:22;18.50;99.90
18948;DHT22;9607;51.600;7.558;2022-09-09T08:50:05;18.60;99.90
18948;DHT22;9607;51.600;7.558;2022-09-09T08:52:48;18.80;99.90
18948;DHT22;9607;51.600;7.558;2022-09-09T08:55:23;19.00;99.90
18948;DHT22;9607;51.600;7.558;2022-09-09T08:57:53;19.10;99.90
18948;DHT22;9607;51.600;7.558;2022-09-09T09:00:20;19.20;99.90
18948;DHT22;9607;51.600;7.558;2022-09-09T09:02:56;19.30;99.90
18948;DHT22;9607;51.600;7.558;2022-09-09T09:05:28;19.40;99.90
18948;DHT22;9607;51.600;7.558;2022-09-09T09:08:07;19.50;99.90
18948;DHT22;9607;51.600;7.558;2022-09-09T09:10:45;19.50;99.90
18948;DHT22;9607;51.600;7.558;2022-09-09T09:13:15;19.70;99.90
18948;DHT22;9607;51.600;7.558;2022-09-09T09:15:44;19.70;99.90
18948;DHT22;9607;51.600;7.558;2022-09-09T09:18:17;19.60;99.90
18948;DHT22;9607;51.600;7.558;2022-09-09T09:20:52;19.60;99.90
18948;DHT22;9607;51.600;7.558;2022-09-09T09:23:24;19.60;99.90
18948;DHT22;9607;51.600;7.558;2022-09-09T09:25:56;19.50;99.90
18948;DHT22;9607;51.600;7.558;2022-09-09T09:28:26;19.40;99.90
18948;DHT22;9607;51.600;7.558;2022-09-09T09:30:56;19.40;99.90
18948;DHT22;9607;51.600;7.558;2022-09-09T09:33:27;19.50;99.90
18948;DHT22;9607;51.600;7.558;2022-09-09T09:35:54;19.50;99.90
18948;DHT22;9607;51.600;7.558;2022-09-09T09:38:24;19.50;99.90
18948;DHT22;9607;51.600;7.558;2022-09-09T09:40:52;19.50;99.90
18948;DHT22;9607;51.600;7.558;2022-09-09T09:43:26;19.60;99.90
18948;DHT22;9607;51.600;7.558;2022-09-09T09:45:53;19.60;99.90
18948;DHT22;9607;51.600;7.558;2022-09-09T09:48:21;19.60;99.90
18948;DHT22;9607;51.600;7.558;2022-09-09T09:50:50;19.80;99.90
18948;DHT22;9607;51.600;7.558;2022-09-09T09:53:23;19.90;99.90
18948;DHT22;9607;51.600;7.558;2022-09-09T09:55:55;20.10;99.90
18948;DHT22;9607;51.600;7.558;2022-09-09T09:58:25;20.30;99.90
18948;DHT22;9607;51.600;7.558;2022-09-09T10:00:53;20.40;99.90
18948;DHT22;9607;51.600;7.558;2022-09-09T10:03:26;20.60;99.90
18948;DHT22;9607;51.600;7.558;2022-09-09T10:05:53;20.70;99.90
18948;DHT22;9607;51.600;7.558;2022-09-09T10:08:24;20.90;99.90
18948;DHT22;9607;51.600;7.558;2022-09-09T10:11:04;21.10;99.90
18948;DHT22;9607;51.600;7.558;2022-09-09T10:13:39;21.30;99.90
18948;DHT22;9607;51.600;7.558;2022-09-09T10:16:22;21.40;99.90
18948;DHT22;9607;51.600;7.558;2022-09-09T10:19:00;21.50;99.90
18948;DHT22;9607;51.600;7.558;2022-09-09T10:21:55;21.40;99.90
18948;DHT22;9607;51.600;7.558;2022-09-09T10:24:41;21.40;99.90
18948;DHT22;9607;51.600;7.558;2022-09-09T10:27:17;21.50;99.90
18948;DHT22;9607;51.600;7.558;2022-09-09T10:30:11;21.60;99.90
18948;DHT22;9607;51.600;7.558;2022-09-09T10:32:48;21.80;99.90
18948;DHT22;9607;51.600;7.558;2022-09-09T10:35:29;21.90;99.90
18948;DHT22;9607;51.600;7.558;2022-09-09T10:38:17;21.90;99.90
18948;DHT22;9607;51.600;7.558;2022-09-09T10:41:11;21.90;99.90
18948;DHT22;9607;51.600;7.558;2022-09-09T10:44:03;21.80;99.90
18948;DHT22;9607;51.600;7.558;2022-09-09T10:46:44;21.60;99.90
18948;DHT22;9607;51.600;7.558;2022-09-09T10:49:22;21.40;99.90
18948;DHT22;9607;51.600;7.558;2022-09-09T10:51:57;21.30;99.90
18948;DHT22;9607;51.600;7.558;2022-09-09T10:54:41;21.20;99.90
18948;DHT22;9607;51.600;7.558;2022-09-09T10:57:16;21.10;99.90
18948;DHT22;9607;51.600;7.558;2022-09-09T10:59:48;21.00;99.90
18948;DHT22;9607;51.600;7.558;2022-09-09T11:02:20;21.10;99.90
18948;DHT22;9607;51.600;7.558;2022-09-09T11:04:53;21.20;99.90
18948;DHT22;9607;51.600;7.558;2022-09-09T11:07:27;21.30;99.90
18948;DHT22;9607;51.600;7.558;2022-09-09T11:10:03;21.50;99.90
18948;DHT22;9607;51.600;7.558;2022-09-09T11:12:34;21.70;99.90
18948;DHT22;9607;51.600;7.558;2022-09-09T11:15:08;21.80;99.90
18948;DHT22;9607;51.600;7.558;2022-09-09T11:17:43;21.80;99.90
18948;DHT22;9607;51.600;7.558;2022-09-09T11:20:13;21.80;99.90
18948;DHT22;9607;51.600;7.558;2022-09-09T11:22:45;21.90;99.90
18948;DHT22;9607;51.600;7.558;2022-09-09T11:25:17;21.80;99.90
18948;DHT22;9607;51.600;7.558;2022-09-09T11:27:56;21.80;99.90
18948;DHT22;9607;51.600;7.558;2022-09-09T11:30:32;21.90;99.90
18948;DHT22;9607;51.600;7.558;2022-09-09T11:33:24;21.90;99.90
18948;DHT22;9607;51.600;7.558;2022-09-09T11:36:08;21.90;99.90
18948;DHT22;9607;51.600;7.558;2022-09-09T11:38:44;21.90;99.90
18948;DHT22;9607;51.600;7.558;2022-09-09T11:41:14;22.00;99.90
18948;DHT22;9607;51.600;7.558;2022-09-09T11:43:44;22.20;99.90
18948;DHT22;9607;51.600;7.558;2022-09-09T11:46:13;22.30;99.90
18948;DHT22;9607;51.600;7.558;2022-09-09T11:48:44;22.30;99.90
18948;DHT22;9607;51.600;7.558;2022-09-09T11:51:12;22.40;99.90
18948;DHT22;9607;51.600;7.558;2022-09-09T11:53:50;22.50;99.90
18948;DHT22;9607;51.600;7.558;2022-09-09T11:56:26;22.60;99.90
18948;DHT22;9607;51.600;7.558;2022-09-09T11:58:57;22.70;99.90
18948;DHT22;9607;51.600;7.558;2022-09-09T12:01:34;22.80;99.90
18948;DHT22;9607;51.600;7.558;2022-09-09T12:04:11;23.00;99.90
18948;DHT22;9607;51.600;7.558;2022-09-09T12:06:44;23.00;99.90
18948;DHT22;9607;51.600;7.558;2022-09-09T12:09:23;23.00;99.90
18948;DHT22;9607;51.600;7.558;2022-09-09T12:11:52;23.00;99.90
18948;DHT22;9607;51.600;7.558;2022-09-09T12:14:36;23.00;99.90
18948;DHT22;9607;51.600;7.558;2022-09-09T12:17:18;23.20;99.90
18948;DHT22;9607;51.600;7.558;2022-09-09T12:19:46;23.40;99.90
18948;DHT22;9607;51.600;7.558;2022-09-09T12:22:20;23.40;99.90
18948;DHT22;9607;51.600;7.558;2022-09-09T12:24:53;23.30;99.90
18948;DHT22;9607;51.600;7.558;2022-09-09T12:27:25;23.30;99.90
18948;DHT22;9607;51.600;7.558;2022-09-09T12:30:00;23.30;99.90
18948;DHT22;9607;51.600;7.558;2022-09-09T12:32:28;23.20;99.90
18948;DHT22;9607;51.600;7.558;2022-09-09T12:34:59;23.00;99.90
18948;DHT22;9607;51.600;7.558;2022-09-09T12:37:30;23.00;99.90
18948;DHT22;9607;51.600;7.558;2022-09-09T12:40:00;22.90;99.90
18948;DHT22;9607;51.600;7.558;2022-09-09T12:42:28;22.90;99.90
18948;DHT22;9607;51.600;7.558;2022-09-09T12:44:58;22.70;99.90
18948;DHT22;9607;51.600;7.558;2022-09-09T12:47:38;22.70;99.90
18948;DHT22;9607;51.600;7.558;2022-09-09T12:50:16;22.50;99.90
18948;DHT22;9607;51.600;7.558;2022-09-09T12:52:44;22.40;99.90
18948;DHT22;9607;51.600;7.558;2022-09-09T12:55:18;22.30;99.90
18948;DHT22;9607;51.600;7.558;2022-09-09T12:57:48;22.30;99.90
18948;DHT22;9607;51.600;7.558;2022-09-09T13:00:20;22.30;99.90
18948;DHT22;9607;51.600;7.558;2022-09-09T13:02:50;22.20;99.90
18948;DHT22;9607;51.600;7.558;2022-09-09T13:05:20;21.90;99.90
18948;DHT22;9607;51.600;7.558;2022-09-09T13:07:46;21.50;99.90
18948;DHT22;9607;51.600;7.558;2022-09-09T13:10:24;21.30;99.90
18948;DHT22;9607;51.600;7.558;2022-09-09T13:12:53;21.20;99.90
18948;DHT22;9607;51.600;7.558;2022-09-09T13:15:23;21.20;99.90
18948;DHT22;9607;51.600;7.558;2022-09-09T13:17:53;21.30;99.90
18948;DHT22;9607;51.600;7.558;2022-09-09T13:20:22;21.30;99.90
18948;DHT22;9607;51.600;7.558;2022-09-09T13:22:51;21.30;99.90
18948;DHT22;9607;51.600;7.558;2022-09-09T13:25:21;21.30;99.90
18948;DHT22;9607;51.600;7.558;2022-09-09T13:28:01;21.20;99.90
18948;DHT22;9607;51.600;7.558;2022-09-09T13:30:31;21.10;99.90
18948;DHT22;9607;51.600;7.558;2022-09-09T13:33:17;21.10;99.90
18948;DHT22;9607;51.600;7.558;2022-09-09T13:35:47;21.30;99.90
18948;DHT22;9607;51.600;7.558;2022-09-09T13:38:15;21.60;99.90
18948;DHT22;9607;51.600;7.558;2022-09-09T13:40:52;21.90;99.90
18948;DHT22;9607;51.600;7.558;2022-09-09T13:43:22;22.30;99.90
18948;DHT22;9607;51.600;7.558;2022-09-09T13:45:55;22.50;99.90
18948;DHT22;9607;51.600;7.558;2022-09-09T13:48:23;22.80;99.90
18948;DHT22;9607;51.600;7.558;2022-09-09T13:50:55;23.00;99.90
18948;DHT22;9607;51.600;7.558;2022-09-09T13:53:22;23.10;99.90
18948;DHT22;9607;51.600;7.558;2022-09-09T13:55:50;23.10;99.90
18948;DHT22;9607;51.600;7.558;2022-09-09T13:58:17;23.20;99.90
18948;DHT22;9607;51.600;7.558;2022-09-09T14:00:45;23.10;99.90
18948;DHT22;9607;51.600;7.558;2022-09-09T14:03:14;23.00;99.90
18948;DHT22;9607;51.600;7.558;2022-09-09T14:05:40;23.00;99.90
18948;DHT22;9607;51.600;7.558;2022-09-09T14:08:14;23.20;99.90
18948;DHT22;9607;51.600;7.558;2022-09-09T14:10:42;23.20;99.90
18948;DHT22;9607;51.600;7.558;2022-09-09T14:13:09;23.20;99.90
18948;DHT22;9607;51.600;7.558;2022-09-09T14:15:37;23.20;99.90
18948;DHT22;9607;51.600;7.558;2022-09-09T14:18:05;23.20;99.90
18948;DHT22;9607;51.600;7.558;2022-09-09T14:20:33;23.20;99.90
18948;DHT22;9607;51.600;7.558;2022-09-09T14:23:00;23.10;99.90
18948;DHT22;9607;51.600;7.558;2022-09-09T14:25:27;23.00;99.90
18948;DHT22;9607;51.600;7.558;2022-09-09T14:27:54;22.60;99.30
18948;DHT22;9607;51.600;7.558;2022-09-09T14:30:21;22.10;99.60
18948;DHT22;9607;51.600;7.558;2022-09-09T14:32:48;21.70;99.90
18948;DHT22;9607;51.600;7.558;2022-09-09T14:35:15;21.30;99.90
18948;DHT22;9607;51.600;7.558;2022-09-09T14:37:45;20.90;99.90
18948;DHT22;9607;51.600;7.558;2022-09-09T14:40:12;20.60;99.90
18948;DHT22;9607;51.600;7.558;2022-09-09T14:42:40;20.30;99.90
18948;DHT22;9607;51.600;7.558;2022-09-09T14:45:07;20.20;99.90
18948;DHT22;9607;51.600;7.558;2022-09-09T14:47:35;20.20;99.90
18948;DHT22;9607;51.600;7.558;2022-09-09T14:50:04;20.20;99.90
18948;DHT22;9607;51.600;7.558;2022-09-09T14:52:32;20.40;99.90
18948;DHT22;9607;51.600;7.558;2022-09-09T14:55:00;20.80;99.90
18948;DHT22;9607;51.600;7.558;2022-09-09T14:57:26;21.30;99.90
18948;DHT22;9607;51.600;7.558;2022-09-09T14:59:53;21.70;99.90
18948;DHT22;9607;51.600;7.558;2022-09-09T15:02:20;22.20;99.90
18948;DHT22;9607;51.600;7.558;2022-09-09T15:04:47;22.40;99.90
18948;DHT22;9607;51.600;7.558;2022-09-09T15:07:15;22.50;99.90
18948;DHT22;9607;51.600;7.558;2022-09-09T15:09:42;22.60;99.90
18948;DHT22;9607;51.600;7.558;2022-09-09T15:12:10;22.60;99.90
18948;DHT22;9607;51.600;7.558;2022-09-09T15:14:36;22.70;99.90
18948;DHT22;9607;51.600;7.558;2022-09-09T15:17:05;22.70;99.90
18948;DHT22;9607;51.600;7.558;2022-09-09T15:19:32;22.70;99.90
18948;DHT22;9607;51.600;7.558;2022-09-09T15:21:58;22.60;99.90
18948;DHT22;9607;51.600;7.558;2022-09-09T15:24:25;22.50;99.90
18948;DHT22;9607;51.600;7.558;2022-09-09T15:26:52;22.40;99.90
18948;DHT22;9607;51.600;7.558;2022-09-09T15:29:20;22.30;99.90
18948;DHT22;9607;51.600;7.558;2022-09-09T15:31:47;22.10;99.90
18948;DHT22;9607;51.600;7.558;2022-09-09T15:34:14;21.70;99.90
18948;DHT22;9607;51.600;7.558;2022-09-09T15:36:42;21.40;99.90
18948;DHT22;9607;51.600;7.558;2022-09-09T15:39:10;21.10;99.90
18948;DHT22;9607;51.600;7.558;2022-09-09T15:41:39;20.90;99.90
18948;DHT22;9607;51.600;7.558;2022-09-09T15:44:07;20.80;99.90
18948;DHT22;9607;51.600;7.558;2022-09-09T15:46:36;20.60;99.90
18948;DHT22;9607;51.600;7.558;2022-09-09T15:49:06;20.40;99.90
18948;DHT22;9607;51.600;7.558;2022-09-09T15:51:35;20.30;99.90
18948;DHT22;9607;51.600;7.558;2022-09-09T15:54:03;20.10;99.90
18948;DHT22;9607;51.600;7.558;2022-09-09T15:56:30;20.00;99.90
18948;DHT22;9607;51.600;7.558;2022-09-09T15:59:26;19.80;99.90
18948;DHT22;9607;51.600;7.558;2022-09-09T16:01:56;19.50;99.90
18948;DHT22;9607;51.600;7.558;2022-09-09T16:07:02;18.30;99.90
18948;DHT22;9607;51.600;7.558;2022-09-09T16:09:31;17.80;99.90
18948;DHT22;9607;51.600;7.558;2022-09-09T16:11:59;17.50;99.90
18948;DHT22;9607;51.600;7.558;2022-09-09T16:14:27;17.20;99.90
18948;DHT22;9607;51.600;7.558;2022-09-09T16:16:55;16.90;99.90
18948;DHT22;9607;51.600;7.558;2022-09-09T16:19:22;16.70;99.90
18948;DHT22;9607;51.600;7.558;2022-09-09T16:21:49;16.50;99.90
18948;DHT22;9607;51.600;7.558;2022-09-09T16:24:18;16.40;99.90
18948;DHT22;9607;51.600;7.558;2022-09-09T16:26:46;16.20;99.90
18948;DHT22;9607;51.600;7.558;2022-09-09T16:29:15;16.10;99.90
18948;DHT22;9607;51.600;7.558;2022-09-09T16:31:43;16.10;99.90
18948;DHT22;9607;51.600;7.558;2022-09-09T16:34:11;16.10;99.90
18948;DHT22;9607;51.600;7.558;2022-09-09T16:36:40;16.00;99.90
18948;DHT22;9607;51.600;7.558;2022-09-09T16:39:09;16.10;99.90
18948;DHT22;9607;51.600;7.558;2022-09-09T16:41:37;16.00;99.90
18948;DHT22;9607;51.600;7.558;2022-09-09T16:44:06;16.10;99.90
18948;DHT22;9607;51.600;7.558;2022-09-09T16:46:36;16.20;99.90
18948;DHT22;9607;51.600;7.558;2022-09-09T16:49:05;16.40;99.90
18948;DHT22;9607;51.600;7.558;2022-09-09T16:51:35;16.80;99.90
18948;DHT22;9607;51.600;7.558;2022-09-09T16:54:04;17.10;99.90
18948;DHT22;9607;51.600;7.558;2022-09-09T16:56:32;17.40;99.90
18948;DHT22;9607;51.600;7.558;2022-09-09T16:59:00;17.50;99.90
18948;DHT22;9607;51.600;7.558;2022-09-09T17:01:29;17.60;99.90
18948;DHT22;9607;51.600;7.558;2022-09-09T17:03:58;17.70;99.90
18948;DHT22;9607;51.600;7.558;2022-09-09T17:06:26;17.70;99.90
18948;DHT22;9607;51.600;7.558;2022-09-09T17:08:55;17.70;99.90
18948;DHT22;9607;51.600;7.558;2022-09-09T17:11:23;17.70;99.90
18948;DHT22;9607;51.600;7.558;2022-09-09T17:13:50;17.60;99.90
18948;DHT22;9607;51.600;7.558;2022-09-09T17:16:20;17.60;99.90
18948;DHT22;9607;51.600;7.558;2022-09-09T17:18:47;17.50;99.90
18948;DHT22;9607;51.600;7.558;2022-09-09T17:21:16;17.30;99.90
18948;DHT22;9607;51.600;7.558;2022-09-09T17:23:44;17.20;99.90
18948;DHT22;9607;51.600;7.558;2022-09-09T17:26:15;17.10;99.90
18948;DHT22;9607;51.600;7.558;2022-09-09T17:28:43;17.00;99.90
18948;DHT22;9607;51.600;7.558;2022-09-09T17:31:12;16.90;99.90
18948;DHT22;9607;51.600;7.558;2022-09-09T17:33:42;16.80;99.90
18948;DHT22;9607;51.600;7.558;2022-09-09T17:36:12;16.70;99.90
18948;DHT22;9607;51.600;7.558;2022-09-09T17:38:40;16.70;99.90
18948;DHT22;9607;51.600;7.558;2022-09-09T17:41:09;16.60;99.90
18948;DHT22;9607;51.600;7.558;2022-09-09T17:43:38;16.50;99.90
18948;DHT22;9607;51.600;7.558;2022-09-09T17:46:07;16.40;99.90
18948;DHT22;9607;51.600;7.558;2022-09-09T17:48:34;16.30;99.90
18948;DHT22;9607;51.600;7.558;2022-09-09T17:51:02;16.30;99.90
18948;DHT22;9607;51.600;7.558;2022-09-09T17:53:29;16.20;99.90
18948;DHT22;9607;51.600;7.558;2022-09-09T17:56:02;16.20;99.90
18948;DHT22;9607;51.600;7.558;2022-09-09T17:58:29;16.20;99.90
18948;DHT22;9607;51.600;7.558;2022-09-09T18:01:01;16.10;99.90
18948;DHT22;9607;51.600;7.558;2022-09-09T18:03:29;16.10;99.90
18948;DHT22;9607;51.600;7.558;2022-09-09T18:05:59;16.10;99.90
18948;DHT22;9607;51.600;7.558;2022-09-09T18:08:28;16.10;99.90
18948;DHT22;9607;51.600;7.558;2022-09-09T18:10:55;16.00;99.90
18948;DHT22;9607;51.600;7.558;2022-09-09T18:13:22;16.00;99.90
18948;DHT22;9607;51.600;7.558;2022-09-09T18:15:49;16.00;99.90
18948;DHT22;9607;51.600;7.558;2022-09-09T18:18:17;15.90;99.90
18948;DHT22;9607;51.600;7.558;2022-09-09T18:20:44;15.90;99.90
18948;DHT22;9607;51.600;7.558;2022-09-09T18:23:11;15.90;99.90
18948;DHT22;9607;51.600;7.558;2022-09-09T18:25:40;15.80;99.90
18948;DHT22;9607;51.600;7.558;2022-09-09T18:28:08;15.80;99.90
18948;DHT22;9607;51.600;7.558;2022-09-09T18:30:38;15.80;99.90
18948;DHT22;9607;51.600;7.558;2022-09-09T18:33:05;15.70;99.90
18948;DHT22;9607;51.600;7.558;2022-09-09T18:35:36;15.70;99.90
18948;DHT22;9607;51.600;7.558;2022-09-09T18:38:03;15.70;99.90
18948;DHT22;9607;51.600;7.558;2022-09-09T18:40:30;15.70;99.90
18948;DHT22;9607;51.600;7.558;2022-09-09T18:42:57;15.70;99.90
18948;DHT22;9607;51.600;7.558;2022-09-09T18:45:24;15.70;99.90
18948;DHT22;9607;51.600;7.558;2022-09-09T18:47:51;15.70;99.90
18948;DHT22;9607;51.600;7.558;2022-09-09T18:50:18;15.70;99.90
18948;DHT22;9607;51.600;7.558;2022-09-09T18:52:46;15.80;99.90
18948;DHT22;9607;51.600;7.558;2022-09-09T18:55:14;15.80;99.90
18948;DHT22;9607;51.600;7.558;2022-09-09T18:57:40;15.90;99.90
18948;DHT22;9607;51.600;7.558;2022-09-09T19:00:10;15.80;99.90
18948;DHT22;9607;51.600;7.558;2022-09-09T19:02:37;15.80;99.90
18948;DHT22;9607;51.600;7.558;2022-09-09T19:05:04;15.80;99.90
18948;DHT22;9607;51.600;7.558;2022-09-09T19:07:31;15.80;99.90
18948;DHT22;9607;51.600;7.558;2022-09-09T19:09:59;15.80;99.90
18948;DHT22;9607;51.600;7.558;2022-09-09T19:12:27;15.80;99.90
18948;DHT22;9607;51.600;7.558;2022-09-09T19:14:55;15.80;99.90
18948;DHT22;9607;51.600;7.558;2022-09-09T19:17:22;15.80;99.90
18948;DHT22;9607;51.600;7.558;2022-09-09T19:19:50;15.80;99.90
18948;DHT22;9607;51.600;7.558;2022-09-09T19:22:17;15.90;99.90
18948;DHT22;9607;51.600;7.558;2022-09-09T19:24:44;15.90;99.90
18948;DHT22;9607;51.600;7.558;2022-09-09T19:27:12;15.90;99.90
18948;DHT22;9607;51.600;7.558;2022-09-09T19:29:39;15.80;99.90
18948;DHT22;9607;51.600;7.558;2022-09-09T19:32:07;15.80;99.90
18948;DHT22;9607;51.600;7.558;2022-09-09T19:34:35;15.80;99.90
18948;DHT22;9607;51.600;7.558;2022-09-09T19:37:03;15.70;99.90
18948;DHT22;9607;51.600;7.558;2022-09-09T19:39:30;15.70;99.90
18948;DHT22;9607;51.600;7.558;2022-09-09T19:41:58;15.70;99.90
18948;DHT22;9607;51.600;7.558;2022-09-09T19:44:26;15.60;99.90
18948;DHT22;9607;51.600;7.558;2022-09-09T19:46:53;15.50;99.90
18948;DHT22;9607;51.600;7.558;2022-09-09T19:49:21;15.50;99.90
18948;DHT22;9607;51.600;7.558;2022-09-09T19:51:47;15.40;99.90
18948;DHT22;9607;51.600;7.558;2022-09-09T19:54:14;15.40;99.90
18948;DHT22;9607;51.600;7.558;2022-09-09T19:56:41;15.30;99.90
18948;DHT22;9607;51.600;7.558;2022-09-09T19:59:10;15.30;99.90
18948;DHT22;9607;51.600;7.558;2022-09-09T20:01:40;15.30;99.90
18948;DHT22;9607;51.600;7.558;2022-09-09T20:04:09;15.30;99.90
18948;DHT22;9607;51.600;7.558;2022-09-09T20:06:37;15.30;99.90
18948;DHT22;9607;51.600;7.558;2022-09-09T20:09:05;15.30;99.90
18948;DHT22;9607;51.600;7.558;2022-09-09T20:11:32;15.30;99.90
18948;DHT22;9607;51.600;7.558;2022-09-09T20:13:59;15.30;99.90
18948;DHT22;9607;51.600;7.558;2022-09-09T20:16:27;15.30;99.90
18948;DHT22;9607;51.600;7.558;2022-09-09T20:18:57;15.40;99.90
18948;DHT22;9607;51.600;7.558;2022-09-09T20:21:27;15.40;99.90
18948;DHT22;9607;51.600;7.558;2022-09-09T20:23:55;15.40;99.90
18948;DHT22;9607;51.600;7.558;2022-09-09T20:26:24;15.40;99.90
18948;DHT22;9607;51.600;7.558;2022-09-09T20:28:54;15.40;99.90